Thomson Spirit — 9HA2336 — position and weather

sailwx.info

Track history (hours):
 
Tides and Currents Weather Stations Pressure Air Temp Water Temp Dewpoint Dewpoint Depression Visibility Wind Speed Wind Dir Waves Ship Positions

Thomson Spirit

Last reported at 2014-Sep-20 08:33 UTC. Time now 2014-Sep-20 13:56 UTC.
Position N 59°21' E 018°08'.

Length 214 m; draft 7.8 m.

Type: Passenger vessel. MMSI: 248368000.

Date/timePositionNaut miles runAvg speedWind from/ knotsBaromVisibWave heightAir tempDewpointWater temp
2014-Sep-20 08:33N 59°21' E 018°08'0 0.1
2014-Sep-20 07:30N 59°21' E 018°08'7 7.6
2014-Sep-20 06:33N 59°22' E 018°22'116 7.2
2014-Sep-19 14:33N 57°28' E 017°49'1110.6
2014-Sep-19 13:33N 57°18' E 017°42'1110.8
2014-Sep-19 12:34N 57°08' E 017°35'1212.0
2014-Sep-19 11:31N 56°57' E 017°26'3812.9
2014-Sep-19 08:33N 56°21' E 017°01'1312.9
2014-Sep-19 07:34N 56°09' E 016°52'2512.4
2014-Sep-19 05:33N 55°54' E 016°17'1313.3
2014-Sep-19 04:33N 55°48' E 015°56'1414.5
2014-Sep-19 03:33N 55°41' E 015°33'1514.5
2014-Sep-19 02:33N 55°34' E 015°11'1414.3
2014-Sep-19 01:33N 55°27' E 014°48'1413.9
2014-Sep-19 00:33N 55°18' E 014°30'1313.5
2014-Sep-18 23:33N 55°09' E 014°12'1514.5
2014-Sep-18 22:33N 55°11' E 013°46'1414.1
2014-Sep-18 21:33N 55°12' E 013°22'1414.2
2014-Sep-18 20:34N 55°14' E 012°57'1212.4
2014-Sep-18 19:33N 55°20' E 012°38'1211.8
2014-Sep-18 18:33N 55°32' E 012°42'9 8.6
2014-Sep-18 17:33N 55°40' E 012°41'1312.8
2014-Sep-18 16:33N 55°53' E 012°40'9 8.3
2014-Sep-18 15:32N 56°02' E 012°37'0 0.1
2014-Sep-18 14:31N 56°02' E 012°37'0 0.0
2014-Sep-18 13:31N 56°02' E 012°37'0 0.0
2014-Sep-18 12:32N 56°02' E 012°37'0 0.0
2014-Sep-18 11:31N 56°02' E 012°37'0 0.0
2014-Sep-18 10:31N 56°02' E 012°37'0 0.0
2014-Sep-18 09:32N 56°02' E 012°37'0 0.0
2014-Sep-18 08:28N 56°02' E 012°37'0 0.0
2014-Sep-18 07:32N 56°02' E 012°37'0 0.0
2014-Sep-18 06:29N 56°02' E 012°37'0 0.1
2014-Sep-18 05:32N 56°02' E 012°37'7 7.2
2014-Sep-18 04:33N 56°07' E 012°30'1414.0
2014-Sep-18 03:33N 56°16' E 012°10'2415.9
2014-Sep-18 02:04N 56°38' E 011°55'916.5
2014-Sep-18 01:33N 56°46' E 011°52'1817.2
2014-Sep-18 00:30N 57°04' E 011°41'1616.7
2014-Sep-17 23:33N 57°18' E 011°32'1616.3
2014-Sep-17 22:33N 57°33' E 011°18'1716.7
2014-Sep-17 21:33N 57°48' E 011°06'1717.2
2014-Sep-17 20:33N 58°05' E 010°54'5516.8
2014-Sep-17 17:17N 58°59' E 010°43'911.6
2014-Sep-17 16:33N 59°03' E 010°58'8 7.6
2014-Sep-17 15:34N 59°10' E 010°57'1 1.3
2014-Sep-17 14:31N 59°11' E 010°57'0 0.0
2014-Sep-17 13:28N 59°11' E 010°57'0 0.0
2014-Sep-17 12:30N 59°11' E 010°57'0 0.0
2014-Sep-17 11:31N 59°11' E 010°57'0 0.0
2014-Sep-17 10:31N 59°11' E 010°57'0 0.0
2014-Sep-17 09:30N 59°11' E 010°57'0 0.0
2014-Sep-17 08:31N 59°11' E 010°57'0 0.0
2014-Sep-17 07:31N 59°11' E 010°57'0 0.0
2014-Sep-17 06:31N 59°11' E 010°57'0 0.0
2014-Sep-17 05:30N 59°11' E 010°57'3 3.1
2014-Sep-17 04:33N 59°09' E 010°58'7 7.4
2014-Sep-17 03:33N 59°01' E 010°56'1111.1
2014-Sep-17 02:33N 58°59' E 010°35'47515.3
2014-Sep-15 19:33N 52°37' E 002°13'1716.7
2014-Sep-15 18:33N 52°23' E 001°58'1716.6
2014-Sep-15 17:33N 52°08' E 001°45'1515.2
2014-Sep-15 16:34N 51°56' E 001°31'9 9.4
2014-Sep-15 15:33N 51°57' E 001°16'0 0.3
2014-Sep-15 14:31N 51°57' E 001°15'0 0.0
2014-Sep-15 13:33N 51°57' E 001°15'0 0.0
2014-Sep-15 12:33N 51°57' E 001°15'0 0.0
2014-Sep-15 11:33N 51°57' E 001°15'0 0.0
2014-Sep-15 10:31N 51°57' E 001°15'0 0.0
2014-Sep-15 09:33N 51°57' E 001°15'0 0.0
2014-Sep-15 08:30N 51°57' E 001°15'0 0.0
2014-Sep-15 07:31N 51°57' E 001°15'0 0.0
2014-Sep-15 06:31N 51°57' E 001°15'0 0.0
2014-Sep-15 05:33N 51°57' E 001°15'1 0.9
2014-Sep-15 04:33N 51°57' E 001°17'10 9.7
2014-Sep-15 03:34N 51°57' E 001°33'8 8.3
2014-Sep-15 02:33N 52°03' E 001°41'10 9.9
2014-Sep-15 01:33N 52°12' E 001°48'1010.3
2014-Sep-15 00:33N 52°21' E 001°57'1110.8
2014-Sep-14 23:33N 52°30' E 002°06'1110.8
2014-Sep-14 22:33N 52°39' E 002°16'37813.4
2014-Sep-13 18:18N 58°45' E 005°05'1013.9
2014-Sep-13 17:34N 58°55' E 005°09'1313.4
2014-Sep-13 16:33N 59°08' E 005°20'1313.0
2014-Sep-13 15:32N 59°21' E 005°19'4 4.1
2014-Sep-13 14:31N 59°25' E 005°16'0 0.0
2014-Sep-13 13:31N 59°25' E 005°16'0 0.0
2014-Sep-13 12:33N 59°25' E 005°16'0 0.0
2014-Sep-13 11:30N 59°25' E 005°16'0 0.0
2014-Sep-13 10:33N 59°25' E 005°16'0 0.0
2014-Sep-13 09:33N 59°25' E 005°16'0 0.0
2014-Sep-13 08:34N 59°25' E 005°16'0 0.0
2014-Sep-13 07:30N 59°25' E 005°16'1 0.6
2014-Sep-13 06:33N 59°25' E 005°14'  
Track history (hours):
 
Tides and Currents Weather Stations Pressure Air Temp Water Temp Dewpoint Dewpoint Depression Visibility Wind Speed Wind Dir Waves Ship Positions

Thomson Spirit

Last reported at 2014-Sep-20 08:33 UTC. Time now 2014-Sep-20 13:56 UTC.
Position N 59°21' E 018°08'.

Length 214 m; draft 7.8 m.

Type: Passenger vessel. MMSI: 248368000.

Date/timePositionNaut miles runAvg speedWind from/ knotsBaromVisibWave heightAir tempDewpointWater temp
2014-Sep-20 08:33N 59°21' E 018°08'0 0.1
2014-Sep-20 07:30N 59°21' E 018°08'7 7.6
2014-Sep-20 06:33N 59°22' E 018°22'116 7.2
2014-Sep-19 14:33N 57°28' E 017°49'1110.6
2014-Sep-19 13:33N 57°18' E 017°42'1110.8
2014-Sep-19 12:34N 57°08' E 017°35'1212.0
2014-Sep-19 11:31N 56°57' E 017°26'3812.9
2014-Sep-19 08:33N 56°21' E 017°01'1312.9
2014-Sep-19 07:34N 56°09' E 016°52'2512.4
2014-Sep-19 05:33N 55°54' E 016°17'1313.3
2014-Sep-19 04:33N 55°48' E 015°56'1414.5
2014-Sep-19 03:33N 55°41' E 015°33'1514.5
2014-Sep-19 02:33N 55°34' E 015°11'1414.3
2014-Sep-19 01:33N 55°27' E 014°48'1413.9
2014-Sep-19 00:33N 55°18' E 014°30'1313.5
2014-Sep-18 23:33N 55°09' E 014°12'1514.5
2014-Sep-18 22:33N 55°11' E 013°46'1414.1
2014-Sep-18 21:33N 55°12' E 013°22'1414.2
2014-Sep-18 20:34N 55°14' E 012°57'1212.4
2014-Sep-18 19:33N 55°20' E 012°38'1211.8
2014-Sep-18 18:33N 55°32' E 012°42'9 8.6
2014-Sep-18 17:33N 55°40' E 012°41'1312.8
2014-Sep-18 16:33N 55°53' E 012°40'9 8.3
2014-Sep-18 15:32N 56°02' E 012°37'0 0.1
2014-Sep-18 14:31N 56°02' E 012°37'0 0.0
2014-Sep-18 13:31N 56°02' E 012°37'0 0.0
2014-Sep-18 12:32N 56°02' E 012°37'0 0.0
2014-Sep-18 11:31N 56°02' E 012°37'0 0.0
2014-Sep-18 10:31N 56°02' E 012°37'0 0.0
2014-Sep-18 09:32N 56°02' E 012°37'0 0.0
2014-Sep-18 08:28N 56°02' E 012°37'0 0.0
2014-Sep-18 07:32N 56°02' E 012°37'0 0.0
2014-Sep-18 06:29N 56°02' E 012°37'0 0.1
2014-Sep-18 05:32N 56°02' E 012°37'7 7.2
2014-Sep-18 04:33N 56°07' E 012°30'1414.0
2014-Sep-18 03:33N 56°16' E 012°10'2415.9
2014-Sep-18 02:04N 56°38' E 011°55'916.5
2014-Sep-18 01:33N 56°46' E 011°52'1817.2
2014-Sep-18 00:30N 57°04' E 011°41'1616.7
2014-Sep-17 23:33N 57°18' E 011°32'1616.3
2014-Sep-17 22:33N 57°33' E 011°18'1716.7
2014-Sep-17 21:33N 57°48' E 011°06'1717.2
2014-Sep-17 20:33N 58°05' E 010°54'5516.8
2014-Sep-17 17:17N 58°59' E 010°43'911.6
2014-Sep-17 16:33N 59°03' E 010°58'8 7.6
2014-Sep-17 15:34N 59°10' E 010°57'1 1.3
2014-Sep-17 14:31N 59°11' E 010°57'0 0.0
2014-Sep-17 13:28N 59°11' E 010°57'0 0.0
2014-Sep-17 12:30N 59°11' E 010°57'0 0.0
2014-Sep-17 11:31N 59°11' E 010°57'0 0.0
2014-Sep-17 10:31N 59°11' E 010°57'0 0.0
2014-Sep-17 09:30N 59°11' E 010°57'0 0.0
2014-Sep-17 08:31N 59°11' E 010°57'0 0.0
2014-Sep-17 07:31N 59°11' E 010°57'0 0.0
2014-Sep-17 06:31N 59°11' E 010°57'0 0.0
2014-Sep-17 05:30N 59°11' E 010°57'3 3.1
2014-Sep-17 04:33N 59°09' E 010°58'7 7.4
2014-Sep-17 03:33N 59°01' E 010°56'1111.1
2014-Sep-17 02:33N 58°59' E 010°35'47515.3
2014-Sep-15 19:33N 52°37' E 002°13'1716.7
2014-Sep-15 18:33N 52°23' E 001°58'1716.6
2014-Sep-15 17:33N 52°08' E 001°45'1515.2
2014-Sep-15 16:34N 51°56' E 001°31'9 9.4
2014-Sep-15 15:33N 51°57' E 001°16'0 0.3
2014-Sep-15 14:31N 51°57' E 001°15'0 0.0
2014-Sep-15 13:33N 51°57' E 001°15'0 0.0
2014-Sep-15 12:33N 51°57' E 001°15'0 0.0
2014-Sep-15 11:33N 51°57' E 001°15'0 0.0
2014-Sep-15 10:31N 51°57' E 001°15'0 0.0
2014-Sep-15 09:33N 51°57' E 001°15'0 0.0
2014-Sep-15 08:30N 51°57' E 001°15'0 0.0
2014-Sep-15 07:31N 51°57' E 001°15'0 0.0
2014-Sep-15 06:31N 51°57' E 001°15'0 0.0
2014-Sep-15 05:33N 51°57' E 001°15'1 0.9
2014-Sep-15 04:33N 51°57' E 001°17'10 9.7
2014-Sep-15 03:34N 51°57' E 001°33'8 8.3
2014-Sep-15 02:33N 52°03' E 001°41'10 9.9
2014-Sep-15 01:33N 52°12' E 001°48'1010.3
2014-Sep-15 00:33N 52°21' E 001°57'1110.8
2014-Sep-14 23:33N 52°30' E 002°06'1110.8
2014-Sep-14 22:33N 52°39' E 002°16'37813.4
2014-Sep-13 18:18N 58°45' E 005°05'1013.9
2014-Sep-13 17:34N 58°55' E 005°09'1313.4
2014-Sep-13 16:33N 59°08' E 005°20'1313.0
2014-Sep-13 15:32N 59°21' E 005°19'4 4.1
2014-Sep-13 14:31N 59°25' E 005°16'0 0.0
2014-Sep-13 13:31N 59°25' E 005°16'0 0.0
2014-Sep-13 12:33N 59°25' E 005°16'0 0.0
2014-Sep-13 11:30N 59°25' E 005°16'0 0.0
2014-Sep-13 10:33N 59°25' E 005°16'0 0.0
2014-Sep-13 09:33N 59°25' E 005°16'0 0.0
2014-Sep-13 08:34N 59°25' E 005°16'0 0.0
2014-Sep-13 07:30N 59°25' E 005°16'1 0.6
2014-Sep-13 06:33N 59°25' E 005°14'  

Dump ship's entire track history